createdAt,value
2022-11-03T00:01:38.617Z,5.87
2022-11-03T00:04:07.924Z,6.70
2022-11-03T00:06:35.967Z,7.03
2022-11-03T00:09:06.832Z,7.57
2022-11-03T00:11:35.810Z,7.57
2022-11-03T00:14:05.057Z,8.10
2022-11-03T00:16:33.932Z,6.90
2022-11-03T00:19:03.754Z,7.07
2022-11-03T00:21:32.141Z,6.67
2022-11-03T00:24:02.500Z,7.27
2022-11-03T00:26:31.903Z,7.00
2022-11-03T00:29:01.808Z,7.00
2022-11-03T00:31:32.217Z,6.77
2022-11-03T00:34:01.532Z,7.50
2022-11-03T00:36:32.957Z,7.10
2022-11-03T00:39:01.393Z,6.27
2022-11-03T00:42:00.181Z,7.03
2022-11-03T00:44:28.557Z,7.37
2022-11-03T00:46:57.581Z,6.60
2022-11-03T00:49:25.831Z,6.93
2022-11-03T00:51:55.522Z,6.70
2022-11-03T00:54:23.772Z,7.67
2022-11-03T00:56:52.055Z,7.13
2022-11-03T01:02:51.380Z,6.77
2022-11-03T01:05:37.070Z,6.83
2022-11-03T01:08:07.607Z,7.80
2022-11-03T01:10:59.416Z,7.10
2022-11-03T01:13:27.737Z,7.90
2022-11-03T01:15:59.636Z,6.90
2022-11-03T01:18:27.933Z,7.73
2022-11-03T01:20:57.077Z,7.37
2022-11-03T01:23:26.760Z,7.80
2022-11-03T01:25:54.985Z,7.33
2022-11-03T01:28:23.273Z,7.17
2022-11-03T01:30:51.584Z,7.90
2022-11-03T01:33:19.806Z,7.53
2022-11-03T01:35:48.066Z,7.70
2022-11-03T01:38:16.384Z,8.07
2022-11-03T01:40:46.035Z,7.77
2022-11-03T01:43:18.121Z,7.73
2022-11-03T01:45:48.716Z,6.77
2022-11-03T01:48:20.048Z,7.67
2022-11-03T01:50:50.069Z,8.70
2022-11-03T01:53:19.533Z,7.53
2022-11-03T01:55:51.993Z,7.67
2022-11-03T01:58:23.293Z,7.33
2022-11-03T02:00:55.008Z,7.07
2022-11-03T02:03:24.470Z,7.57
2022-11-03T02:05:54.061Z,8.57
2022-11-03T02:08:26.199Z,7.73
2022-11-03T02:10:55.960Z,7.33
2022-11-03T02:13:26.678Z,8.07
2022-11-03T02:15:58.329Z,7.53
2022-11-03T02:18:31.055Z,7.20
2022-11-03T02:21:12.700Z,7.77
2022-11-03T02:23:44.789Z,7.77
2022-11-03T02:26:16.732Z,8.10
2022-11-03T02:28:45.102Z,7.50
2022-11-03T02:31:17.929Z,7.90
2022-11-03T02:33:53.024Z,6.93
2022-11-03T02:36:25.551Z,7.63
2022-11-03T02:38:59.232Z,8.40
2022-11-03T02:41:30.944Z,7.60
2022-11-03T02:43:59.581Z,7.53
2022-11-03T02:46:29.189Z,8.30
2022-11-03T02:48:57.923Z,7.90
2022-11-03T02:51:26.559Z,8.60
2022-11-03T02:54:03.644Z,7.63
2022-11-03T02:56:36.414Z,7.83
2022-11-03T02:59:10.142Z,7.97
2022-11-03T03:01:48.352Z,9.37
2022-11-03T03:04:23.836Z,8.53
2022-11-03T03:06:56.969Z,7.73
2022-11-03T03:09:29.813Z,8.70
2022-11-03T03:12:01.809Z,8.40
2022-11-03T03:14:34.865Z,8.20
2022-11-03T03:17:06.331Z,8.23
2022-11-03T03:19:49.062Z,7.47
2022-11-03T03:22:25.515Z,7.40
2022-11-03T03:24:59.104Z,7.90
2022-11-03T03:27:32.878Z,8.60
2022-11-03T03:30:04.884Z,8.23
2022-11-03T03:32:37.589Z,8.50
2022-11-03T03:35:09.589Z,8.03
2022-11-03T03:37:40.898Z,8.77
2022-11-03T03:40:13.432Z,8.27
2022-11-03T03:42:47.074Z,7.77
2022-11-03T03:45:15.861Z,9.00
2022-11-03T03:47:44.733Z,9.10
2022-11-03T03:50:13.420Z,8.43
2022-11-03T03:52:43.075Z,8.77
2022-11-03T03:55:19.403Z,8.43
2022-11-03T03:57:49.385Z,8.83
2022-11-03T04:00:19.388Z,8.50
2022-11-03T04:02:47.861Z,8.70
2022-11-03T04:05:16.296Z,7.93
2022-11-03T04:07:51.646Z,8.33
2022-11-03T04:10:22.956Z,7.67
2022-11-03T04:13:10.609Z,8.47
2022-11-03T04:15:56.280Z,8.70
2022-11-03T04:18:42.493Z,8.27
2022-11-03T04:21:30.976Z,8.80
2022-11-03T04:24:00.373Z,7.97
2022-11-03T04:26:30.128Z,8.87
2022-11-03T04:29:00.306Z,8.17
2022-11-03T04:31:31.414Z,9.13
2022-11-03T04:34:00.444Z,9.57
2022-11-03T04:36:28.808Z,9.03
2022-11-03T04:38:57.775Z,7.93
2022-11-03T04:41:29.826Z,9.07
2022-11-03T04:43:59.668Z,8.57
2022-11-03T04:46:29.383Z,9.40
2022-11-03T04:49:02.205Z,8.73
2022-11-03T04:51:34.434Z,8.47
2022-11-03T04:54:05.790Z,9.37
2022-11-03T04:56:34.925Z,9.93
2022-11-03T04:59:04.700Z,9.90
2022-11-03T05:01:33.671Z,10.00
2022-11-03T05:04:02.085Z,9.20
2022-11-03T05:06:31.425Z,10.00
2022-11-03T05:09:01.818Z,9.10
2022-11-03T05:11:33.400Z,9.33
2022-11-03T05:14:05.736Z,9.40
2022-11-03T05:16:35.059Z,9.07
2022-11-03T05:19:03.567Z,8.30
2022-11-03T05:21:31.816Z,8.60
2022-11-03T05:24:04.588Z,10.03
2022-11-03T05:26:36.180Z,8.97
2022-11-03T05:29:12.789Z,9.37
2022-11-03T05:31:43.050Z,8.87
2022-11-03T05:34:31.247Z,10.57
2022-11-03T05:37:01.463Z,10.13
2022-11-03T05:39:32.779Z,10.17
2022-11-03T05:42:01.647Z,9.90
2022-11-03T05:44:36.887Z,10.20
2022-11-03T05:47:10.410Z,10.73
2022-11-03T05:49:38.803Z,9.90
2022-11-03T05:52:13.866Z,9.73
2022-11-03T05:54:42.180Z,10.77
2022-11-03T05:57:12.874Z,9.57
2022-11-03T05:59:45.757Z,9.77
2022-11-03T06:02:33.386Z,10.03
2022-11-03T06:05:01.951Z,9.37
2022-11-03T06:07:32.837Z,9.77
2022-11-03T06:10:01.103Z,9.10
2022-11-03T06:12:31.865Z,9.53
2022-11-03T06:15:01.577Z,10.63
2022-11-03T06:17:30.695Z,9.83
2022-11-03T06:20:00.910Z,9.60
2022-11-03T06:22:32.229Z,9.47
2022-11-03T06:25:02.812Z,9.97
2022-11-03T06:27:33.351Z,10.40
2022-11-03T06:30:14.280Z,10.40
2022-11-03T06:32:42.608Z,9.93
2022-11-03T06:35:13.803Z,10.57
2022-11-03T06:37:42.469Z,9.77
2022-11-03T06:40:34.860Z,10.00
2022-11-03T06:43:15.999Z,10.13
2022-11-03T06:45:52.105Z,11.97
2022-11-03T06:48:28.925Z,11.88
2022-11-03T06:50:59.477Z,11.00
2022-11-03T06:53:30.805Z,11.07
2022-11-03T06:55:59.398Z,13.97
2022-11-03T06:58:31.431Z,13.87
2022-11-03T07:01:23.275Z,11.57
2022-11-03T07:03:53.889Z,12.33
2022-11-03T07:06:24.657Z,13.03
2022-11-03T07:08:55.292Z,12.40
2022-11-03T07:11:25.257Z,11.37
2022-11-03T07:13:55.089Z,11.70
2022-11-03T07:16:31.352Z,11.07
2022-11-03T07:19:02.525Z,12.00
2022-11-03T07:21:38.119Z,11.40
2022-11-03T07:24:16.787Z,10.77
2022-11-03T07:26:45.104Z,10.77
2022-11-03T07:29:19.743Z,12.20
2022-11-03T07:31:50.608Z,11.00
2022-11-03T07:34:24.896Z,11.83
2022-11-03T07:36:56.101Z,11.23
2022-11-03T07:39:25.012Z,10.73
2022-11-03T07:41:53.485Z,11.30
2022-11-03T07:44:22.707Z,10.87
2022-11-03T07:46:52.617Z,11.50
2022-11-03T07:49:28.660Z,9.80
2022-11-03T07:51:58.601Z,11.53
2022-11-03T07:54:30.721Z,10.40
2022-11-03T07:57:01.573Z,10.27
2022-11-03T07:59:33.768Z,9.70
2022-11-03T08:02:13.257Z,11.50
2022-11-03T08:04:41.587Z,10.97
2022-11-03T08:07:09.842Z,11.00
2022-11-03T08:09:38.328Z,9.90
2022-11-03T08:12:07.067Z,10.13
2022-11-03T08:14:35.460Z,10.50
2022-11-03T08:17:05.440Z,10.43
2022-11-03T08:19:33.723Z,11.03
2022-11-03T08:22:02.078Z,9.50
2022-11-03T08:24:30.497Z,11.23
2022-11-03T08:26:58.849Z,10.67
2022-11-03T08:29:27.422Z,11.53
2022-11-03T08:31:55.717Z,10.70
2022-11-03T08:34:25.464Z,10.23
2022-11-03T08:36:53.732Z,10.17
2022-11-03T08:39:21.986Z,10.33
2022-11-03T08:41:50.216Z,10.40
2022-11-03T08:44:18.511Z,10.03
2022-11-03T08:46:46.761Z,11.37
2022-11-03T08:49:15.012Z,10.13
2022-11-03T08:51:44.966Z,10.37
2022-11-03T08:54:13.527Z,9.73
2022-11-03T08:56:42.161Z,9.33
2022-11-03T08:59:10.382Z,10.97
2022-11-03T09:01:38.704Z,9.37
2022-11-03T09:04:07.089Z,10.80
2022-11-03T09:06:35.417Z,9.37
2022-11-03T09:11:53.408Z,8.50
2022-11-03T09:14:21.773Z,9.88
2022-11-03T09:16:50.121Z,9.32
2022-11-03T09:19:18.419Z,7.60
2022-11-03T09:21:46.720Z,8.60
2022-11-03T09:24:16.400Z,8.43
2022-11-03T09:26:44.702Z,9.30
2022-11-03T09:29:13.064Z,8.18
2022-11-03T09:31:41.336Z,9.93
2022-11-03T09:34:09.608Z,9.35
2022-11-03T09:36:38.336Z,9.52
2022-11-03T09:39:06.689Z,9.48
2022-11-03T09:41:55.780Z,8.63
2022-11-03T09:44:25.142Z,8.75
2022-11-03T09:46:57.811Z,8.65
2022-11-03T09:49:27.466Z,9.35
2022-11-03T09:51:56.830Z,9.00
2022-11-03T09:54:27.059Z,9.05
2022-11-03T09:56:59.250Z,9.40
2022-11-03T09:59:27.530Z,8.98
2022-11-03T10:01:56.193Z,7.63
2022-11-03T10:04:28.651Z,6.80
2022-11-03T10:06:58.198Z,7.05
2022-11-03T10:09:28.655Z,7.32
2022-11-03T10:11:58.389Z,7.40
2022-11-03T10:14:26.712Z,7.78
2022-11-03T10:17:00.319Z,7.15
2022-11-03T10:19:28.940Z,7.07
2022-11-03T10:21:57.315Z,7.45
2022-11-03T10:24:26.983Z,6.75
2022-11-03T10:26:57.381Z,6.65
2022-11-03T10:29:26.897Z,6.38
2022-11-03T10:31:57.147Z,7.35
2022-11-03T10:34:34.291Z,6.53
2022-11-03T10:37:20.989Z,6.72
2022-11-03T10:39:49.869Z,6.80
2022-11-03T10:42:21.726Z,7.03
2022-11-03T10:44:52.882Z,7.10
2022-11-03T10:47:33.870Z,6.97
2022-11-03T10:50:19.815Z,6.75
2022-11-03T10:52:48.442Z,6.25
2022-11-03T10:55:20.578Z,6.78
2022-11-03T10:57:55.688Z,6.57
2022-11-03T11:00:24.338Z,6.53
2022-11-03T11:02:56.879Z,6.30
2022-11-03T11:05:25.974Z,5.78
2022-11-03T11:07:55.836Z,6.57
2022-11-03T11:10:25.754Z,5.85
2022-11-03T11:13:31.161Z,6.30
2022-11-03T11:16:00.960Z,6.20
2022-11-03T11:19:12.740Z,7.03
2022-11-03T11:22:01.858Z,6.10
2022-11-03T11:24:57.837Z,5.85
2022-11-03T11:27:58.753Z,7.32
2022-11-03T11:31:03.829Z,6.35
2022-11-03T11:33:35.438Z,6.53
2022-11-03T11:36:21.477Z,5.25
2022-11-03T11:39:11.229Z,5.40
2022-11-03T11:42:11.918Z,5.28
2022-11-03T11:45:04.440Z,5.43
2022-11-03T11:47:35.980Z,5.03
2022-11-03T11:50:24.913Z,4.75
2022-11-03T11:52:59.013Z,5.85
2022-11-03T11:55:36.912Z,4.60
2022-11-03T11:58:13.828Z,4.35
2022-11-03T12:00:52.683Z,4.55
2022-11-03T12:03:30.206Z,4.55
2022-11-03T12:05:59.940Z,4.88
2022-11-03T12:08:31.086Z,4.82
2022-11-03T12:11:01.831Z,4.78
2022-11-03T12:13:51.545Z,4.53
2022-11-03T12:16:36.276Z,4.10
2022-11-03T12:19:40.976Z,4.20
2022-11-03T12:22:12.631Z,5.10
2022-11-03T12:24:51.720Z,4.38
2022-11-03T12:27:41.811Z,4.22
2022-11-03T12:30:18.944Z,4.65
2022-11-03T12:32:47.737Z,4.40
2022-11-03T12:35:55.124Z,4.13
2022-11-03T12:38:24.807Z,4.50
2022-11-03T12:40:53.855Z,4.72
2022-11-03T12:43:22.117Z,4.47
2022-11-03T12:45:50.379Z,5.38
2022-11-03T12:48:19.713Z,4.68
2022-11-03T12:50:47.941Z,5.00
2022-11-03T12:53:16.183Z,3.92
2022-11-03T12:55:45.842Z,4.30
2022-11-03T12:58:14.041Z,4.43
2022-11-03T13:00:46.348Z,4.55
2022-11-03T13:03:17.977Z,4.85
2022-11-03T13:05:49.232Z,4.60
2022-11-03T13:10:48.022Z,5.13
2022-11-03T13:13:16.241Z,4.22
2022-11-03T13:15:44.511Z,4.63
2022-11-03T13:18:14.101Z,4.82
2022-11-03T13:20:44.294Z,4.43
2022-11-03T13:23:13.706Z,4.03
2022-11-03T13:25:43.499Z,4.38
2022-11-03T13:28:13.231Z,3.90
2022-11-03T13:30:41.539Z,4.32
2022-11-03T13:33:10.215Z,4.28
2022-11-03T13:35:38.762Z,5.32
2022-11-03T13:38:06.968Z,4.07
2022-11-03T13:40:55.606Z,4.57
2022-11-03T13:43:25.301Z,4.18
2022-11-03T13:45:54.044Z,4.40
2022-11-03T13:49:20.006Z,4.55
2022-11-03T13:51:12.202Z,4.68
2022-11-03T13:56:28.758Z,4.20
2022-11-03T14:01:47.134Z,4.68
2022-11-03T14:07:04.223Z,4.82
2022-11-03T14:09:32.674Z,5.20
2022-11-03T14:12:26.816Z,4.57
2022-11-03T14:14:56.433Z,4.72
2022-11-03T14:17:25.507Z,5.00
2022-11-03T14:19:57.884Z,5.05
2022-11-03T14:22:31.496Z,5.60
2022-11-03T14:25:01.091Z,5.82
2022-11-03T14:27:29.897Z,5.65
2022-11-03T14:29:59.595Z,5.38
2022-11-03T14:32:27.964Z,5.38
2022-11-03T14:34:57.575Z,4.85
2022-11-03T14:37:27.275Z,5.78
2022-11-03T14:39:55.676Z,6.50
2022-11-03T14:42:22.992Z,6.68
2022-11-03T14:47:26.607Z,8.57
2022-11-03T14:49:54.815Z,6.63
2022-11-03T14:52:23.017Z,6.22
2022-11-03T14:54:52.257Z,7.10
2022-11-03T14:57:20.529Z,7.03
2022-11-03T14:59:53.239Z,6.68
2022-11-03T15:02:22.097Z,6.37
2022-11-03T15:04:51.776Z,6.40
2022-11-03T15:07:19.990Z,6.57
2022-11-03T15:09:48.221Z,6.57
2022-11-03T15:12:16.424Z,6.13
2022-11-03T15:14:44.623Z,5.57
2022-11-03T15:17:12.901Z,6.23
2022-11-03T15:19:41.085Z,5.83
2022-11-03T15:22:10.864Z,5.93
2022-11-03T15:27:27.260Z,8.73
2022-11-03T15:29:55.563Z,8.27
2022-11-03T15:32:23.755Z,7.80
2022-11-03T15:34:51.994Z,7.77
2022-11-03T15:37:21.663Z,7.53
2022-11-03T15:39:49.910Z,7.80
2022-11-03T15:42:18.199Z,7.03
2022-11-03T15:44:46.466Z,7.03
2022-11-03T15:47:14.632Z,7.47
2022-11-03T15:49:42.817Z,7.40
2022-11-03T15:52:11.168Z,7.40
2022-11-03T15:54:42.579Z,8.23
2022-11-03T15:57:11.150Z,7.43
2022-11-03T15:59:40.125Z,7.30
2022-11-03T16:02:35.122Z,6.80
2022-11-03T16:04:57.249Z,6.83
2022-11-03T16:07:26.082Z,7.63
2022-11-03T16:09:56.448Z,8.03
2022-11-03T16:12:25.088Z,7.83
2022-11-03T16:14:53.468Z,8.40
2022-11-03T16:17:22.823Z,8.13
2022-11-03T16:19:51.491Z,7.13
2022-11-03T16:22:19.792Z,7.93
2022-11-03T16:24:48.695Z,7.80
2022-11-03T16:27:18.389Z,7.63
2022-11-03T16:29:46.583Z,12.30
2022-11-03T16:32:14.800Z,11.43
2022-11-03T16:34:42.950Z,13.93
2022-11-03T16:37:11.286Z,13.47
2022-11-03T16:39:40.117Z,11.43
2022-11-03T16:42:08.406Z,11.00
2022-11-03T16:44:37.986Z,10.57
2022-11-03T16:47:06.622Z,10.17
2022-11-03T16:49:35.288Z,10.80
2022-11-03T16:52:03.472Z,9.37
2022-11-03T16:54:31.722Z,9.77
2022-11-03T16:56:59.942Z,10.40
2022-11-03T16:59:28.544Z,10.17
2022-11-03T17:01:58.267Z,10.83
2022-11-03T17:04:26.728Z,11.50
2022-11-03T17:06:55.037Z,11.07
2022-11-03T17:09:23.292Z,10.63
2022-11-03T17:11:51.488Z,11.70
2022-11-03T17:14:19.699Z,12.10
2022-11-03T17:16:48.740Z,13.52
2022-11-03T17:19:18.975Z,12.63
2022-11-03T17:21:47.309Z,12.43
2022-11-03T17:24:15.533Z,13.17
2022-11-03T17:26:51.685Z,13.73
2022-11-03T17:29:22.564Z,15.75
2022-11-03T17:31:51.482Z,15.60
2022-11-03T17:34:25.168Z,16.70
2022-11-03T17:36:54.293Z,18.47
2022-11-03T17:39:29.692Z,16.47
2022-11-03T17:42:13.182Z,15.70
2022-11-03T17:44:41.426Z,15.17
2022-11-03T17:47:09.709Z,15.37
2022-11-03T17:49:39.421Z,13.27
2022-11-03T17:52:11.403Z,15.17
2022-11-03T17:54:40.216Z,14.33
2022-11-03T17:57:08.486Z,13.40
2022-11-03T17:59:44.122Z,13.10
2022-11-03T18:02:17.441Z,12.33
2022-11-03T18:04:48.156Z,12.07
2022-11-03T18:07:21.786Z,12.13
2022-11-03T18:09:50.493Z,12.70
2022-11-03T18:12:39.119Z,12.13
2022-11-03T18:15:12.296Z,12.23
2022-11-03T18:17:40.694Z,12.97
2022-11-03T18:20:17.387Z,15.83
2022-11-03T18:22:46.591Z,19.60
2022-11-03T18:25:15.624Z,22.30
2022-11-03T18:27:44.328Z,23.87
2022-11-03T18:30:16.726Z,29.30
2022-11-03T18:32:46.980Z,32.07
2022-11-03T18:35:21.703Z,31.17
2022-11-03T18:37:50.355Z,30.20
2022-11-03T18:40:20.322Z,29.10
2022-11-03T18:42:48.762Z,28.27
2022-11-03T18:45:19.042Z,28.77
2022-11-03T18:47:47.270Z,26.97
2022-11-03T18:50:18.366Z,28.83
2022-11-03T18:52:48.900Z,29.03
2022-11-03T18:55:18.245Z,28.90
2022-11-03T18:57:47.061Z,29.70
2022-11-03T19:00:24.517Z,29.93
2022-11-03T19:02:52.727Z,32.13
2022-11-03T19:05:23.462Z,33.70
2022-11-03T19:07:53.156Z,33.33
2022-11-03T19:10:25.408Z,35.07
2022-11-03T19:12:53.645Z,33.47
2022-11-03T19:15:24.184Z,33.97
2022-11-03T19:17:58.123Z,33.53
2022-11-03T19:20:27.773Z,33.97
2022-11-03T19:22:56.057Z,32.20
2022-11-03T19:25:24.829Z,31.03
2022-11-03T19:27:53.181Z,31.90
2022-11-03T19:30:21.546Z,32.30
2022-11-03T19:32:51.793Z,33.47
2022-11-03T19:35:22.238Z,32.53
2022-11-03T19:37:58.767Z,33.77
2022-11-03T19:40:27.065Z,32.97
2022-11-03T19:42:54.855Z,33.67
2022-11-03T19:45:24.255Z,30.60
2022-11-03T19:48:22.554Z,28.07
2022-11-03T19:50:48.756Z,25.70
2022-11-03T19:53:23.505Z,25.43
2022-11-03T19:55:54.804Z,26.63
2022-11-03T19:58:25.072Z,26.93
2022-11-03T20:00:54.105Z,25.10
2022-11-03T20:03:23.270Z,25.43
2022-11-03T20:05:54.418Z,25.10
2022-11-03T20:08:25.814Z,25.57
2022-11-03T20:10:54.448Z,24.03
2022-11-03T20:13:24.748Z,24.40
2022-11-03T20:15:59.126Z,25.03
2022-11-03T20:18:29.121Z,25.03
2022-11-03T20:20:58.252Z,23.73
2022-11-03T20:23:30.726Z,22.73
2022-11-03T20:25:59.513Z,20.60
2022-11-03T20:28:29.559Z,22.13
2022-11-03T20:31:01.089Z,21.30
2022-11-03T20:33:29.541Z,18.73
2022-11-03T20:35:58.482Z,19.83
2022-11-03T20:38:29.111Z,21.07
2022-11-03T20:40:59.374Z,20.80
2022-11-03T20:43:30.143Z,19.40
2022-11-03T20:45:59.035Z,21.65
2022-11-03T20:48:27.335Z,19.73
2022-11-03T20:50:56.406Z,18.70
2022-11-03T20:53:27.415Z,18.57
2022-11-03T20:55:55.718Z,16.43
2022-11-03T20:58:24.005Z,17.00
2022-11-03T21:00:52.282Z,16.80
2022-11-03T21:03:37.974Z,16.33
2022-11-03T21:06:12.981Z,15.70
2022-11-03T21:08:42.692Z,15.57
2022-11-03T21:11:27.429Z,15.37
2022-11-03T21:13:57.721Z,15.07
2022-11-03T21:16:43.964Z,14.20
2022-11-03T21:19:36.840Z,14.27
2022-11-03T21:22:30.756Z,15.10
2022-11-03T21:25:04.722Z,13.77
2022-11-03T21:27:33.844Z,15.03
2022-11-03T21:30:03.147Z,13.93
2022-11-03T21:32:31.434Z,13.70
2022-11-03T21:35:01.771Z,12.83
2022-11-03T21:37:30.027Z,12.10
2022-11-03T21:39:58.288Z,14.27
2022-11-03T21:42:45.640Z,12.83
2022-11-03T21:45:14.785Z,12.07
2022-11-03T21:48:03.056Z,12.47
2022-11-03T21:50:30.325Z,13.83
2022-11-03T21:52:58.931Z,13.47
2022-11-03T21:55:28.572Z,14.17
2022-11-03T21:57:58.221Z,15.53
2022-11-03T22:00:26.548Z,15.67
2022-11-03T22:02:54.854Z,14.70
2022-11-03T22:05:23.074Z,13.97
2022-11-03T22:07:51.485Z,13.93
2022-11-03T22:10:20.601Z,13.57
2022-11-03T22:12:48.896Z,13.83
2022-11-03T22:15:35.960Z,14.00
2022-11-03T22:18:04.829Z,14.00
2022-11-03T22:20:51.103Z,13.57
2022-11-03T22:23:36.718Z,12.57
2022-11-03T22:26:22.513Z,12.83
2022-11-03T22:29:10.789Z,12.37
2022-11-03T22:31:42.175Z,12.70
2022-11-03T22:34:28.275Z,12.73
2022-11-03T22:36:56.573Z,12.90
2022-11-03T22:39:42.209Z,13.00
2022-11-03T22:42:30.318Z,12.83
2022-11-03T22:45:15.704Z,13.83
2022-11-03T22:47:45.484Z,13.43
2022-11-03T22:50:13.743Z,13.40
2022-11-03T22:52:42.029Z,13.60
2022-11-03T22:55:09.542Z,12.27
2022-11-03T22:57:37.813Z,13.40
2022-11-03T23:00:06.858Z,14.37
2022-11-03T23:02:35.231Z,13.30
2022-11-03T23:05:05.375Z,12.00
2022-11-03T23:07:40.782Z,12.63
2022-11-03T23:10:10.269Z,13.00
2022-11-03T23:12:38.601Z,12.40
2022-11-03T23:15:25.605Z,12.37
2022-11-03T23:18:07.704Z,12.50
2022-11-03T23:20:56.283Z,13.88
2022-11-03T23:23:42.009Z,13.30
2022-11-03T23:26:10.330Z,12.03
2022-11-03T23:28:38.861Z,11.57
2022-11-03T23:31:07.490Z,12.67
2022-11-03T23:33:36.036Z,11.93
2022-11-03T23:36:06.917Z,12.23
2022-11-03T23:38:36.101Z,13.33
2022-11-03T23:41:05.560Z,13.80
2022-11-03T23:43:34.398Z,13.03
2022-11-03T23:46:20.448Z,12.67
2022-11-03T23:48:48.919Z,12.47
2022-11-03T23:51:20.295Z,11.87
2022-11-03T23:53:49.154Z,12.03
2022-11-03T23:56:39.976Z,12.63
2022-11-03T23:59:08.944Z,11.83
